createdAt,value
2023-03-02T00:01:29.186Z,37.28
2023-03-02T00:03:59.127Z,38.53
2023-03-02T00:06:28.673Z,36.75
2023-03-02T00:08:56.565Z,40.03
2023-03-02T00:11:24.055Z,35.72
2023-03-02T00:13:51.384Z,46.92
2023-03-02T00:16:19.038Z,39.95
2023-03-02T00:18:46.434Z,39.45
2023-03-02T00:21:13.882Z,41.15
2023-03-02T00:23:41.194Z,45.67
2023-03-02T00:26:08.877Z,42.33
2023-03-02T00:28:36.920Z,35.95
2023-03-02T00:31:05.629Z,38.50
2023-03-02T00:33:33.577Z,45.00
2023-03-02T00:36:01.478Z,38.55
2023-03-02T00:38:30.220Z,35.58
2023-03-02T00:40:59.693Z,35.50
2023-03-02T00:43:27.999Z,39.35
2023-03-02T00:45:55.667Z,37.47
2023-03-02T00:48:22.940Z,38.67
2023-03-02T00:50:50.242Z,35.70
2023-03-02T00:53:19.434Z,40.50
2023-03-02T00:55:55.053Z,41.10
2023-03-02T00:58:23.738Z,37.35
2023-03-02T01:00:51.325Z,38.60
2023-03-02T01:03:21.001Z,39.38
2023-03-02T01:05:48.780Z,40.40
2023-03-02T01:08:16.188Z,38.85
2023-03-02T01:10:43.719Z,41.85
2023-03-02T01:13:11.064Z,39.78
2023-03-02T01:15:38.501Z,39.85
2023-03-02T01:18:05.850Z,38.38
2023-03-02T01:20:33.412Z,38.33
2023-03-02T01:23:00.894Z,38.80
2023-03-02T01:25:28.216Z,42.35
2023-03-02T01:27:56.211Z,36.80
2023-03-02T01:30:23.632Z,41.15
2023-03-02T01:32:52.490Z,35.70
2023-03-02T01:35:19.719Z,40.47
2023-03-02T01:37:47.134Z,38.03
2023-03-02T01:40:14.743Z,37.92
2023-03-02T01:42:51.344Z,41.13
2023-03-02T01:45:43.811Z,39.20
2023-03-02T01:48:12.855Z,37.88
2023-03-02T01:50:40.233Z,39.03
2023-03-02T01:53:08.393Z,42.90
2023-03-02T01:55:38.263Z,39.45
2023-03-02T02:00:38.592Z,41.33
2023-03-02T02:03:15.927Z,46.55
2023-03-02T02:05:44.315Z,46.90
2023-03-02T02:08:11.757Z,39.40
2023-03-02T02:10:40.076Z,41.13
2023-03-02T02:13:11.272Z,43.22
2023-03-02T02:15:39.558Z,39.97
2023-03-02T02:18:07.609Z,45.78
2023-03-02T02:20:42.539Z,34.50
2023-03-02T02:23:19.604Z,41.58
2023-03-02T02:25:53.156Z,40.45
2023-03-02T02:28:28.096Z,41.75
2023-03-02T02:31:16.447Z,43.33
2023-03-02T02:33:46.960Z,40.75
2023-03-02T02:36:19.512Z,44.15
2023-03-02T02:38:48.900Z,42.47
2023-03-02T02:41:25.902Z,43.80
2023-03-02T02:43:54.039Z,44.00
2023-03-02T02:46:21.949Z,41.92
2023-03-02T02:48:50.141Z,42.58
2023-03-02T02:51:23.818Z,52.10
2023-03-02T02:54:01.205Z,46.88
2023-03-02T02:56:38.455Z,43.15
2023-03-02T02:59:15.361Z,51.58
2023-03-02T03:01:43.594Z,42.67
2023-03-02T03:04:14.316Z,44.03
2023-03-02T03:07:07.426Z,44.65
2023-03-02T03:09:35.077Z,40.15
2023-03-02T03:12:20.767Z,45.33
2023-03-02T03:14:48.369Z,47.15
2023-03-02T03:17:16.055Z,39.78
2023-03-02T03:19:52.562Z,41.53
2023-03-02T03:22:20.477Z,41.15
2023-03-02T03:24:50.159Z,45.85
2023-03-02T03:27:19.122Z,42.80
2023-03-02T03:29:50.740Z,42.08
2023-03-02T03:32:40.429Z,44.42
2023-03-02T03:35:11.649Z,45.60
2023-03-02T03:37:41.244Z,45.72
2023-03-02T03:40:10.057Z,43.67
2023-03-02T03:42:40.433Z,45.33
2023-03-02T03:45:09.248Z,44.42
2023-03-02T03:47:37.873Z,48.05
2023-03-02T03:50:08.446Z,43.58
2023-03-02T03:52:36.566Z,44.63
2023-03-02T03:55:19.477Z,43.47
2023-03-02T03:57:48.764Z,42.97
2023-03-02T04:00:19.425Z,42.97
2023-03-02T04:02:52.276Z,44.63
2023-03-02T04:05:20.359Z,44.50
2023-03-02T04:07:51.276Z,44.05
2023-03-02T04:10:19.460Z,45.95
2023-03-02T04:12:47.533Z,45.25
2023-03-02T04:15:17.105Z,42.25
2023-03-02T04:17:46.210Z,45.03
2023-03-02T04:22:48.979Z,48.35
2023-03-02T04:25:19.822Z,45.65
2023-03-02T04:27:49.100Z,44.33
2023-03-02T04:30:19.934Z,45.08
2023-03-02T04:32:47.636Z,43.42
2023-03-02T04:35:16.055Z,44.88
2023-03-02T04:37:44.532Z,44.33
2023-03-02T04:40:12.720Z,40.30
2023-03-02T04:42:40.151Z,45.40
2023-03-02T04:45:08.113Z,42.88
2023-03-02T04:47:35.437Z,45.95
2023-03-02T04:50:03.139Z,43.78
2023-03-02T04:52:30.832Z,43.83
2023-03-02T04:54:58.439Z,43.70
2023-03-02T04:57:25.728Z,40.15
2023-03-02T04:59:52.930Z,43.92
2023-03-02T05:02:20.342Z,45.55
2023-03-02T05:04:47.813Z,44.67
2023-03-02T05:07:15.249Z,44.63
2023-03-02T05:09:42.704Z,44.80
2023-03-02T05:12:09.904Z,48.08
2023-03-02T05:14:37.413Z,43.33
2023-03-02T05:17:04.793Z,46.50
2023-03-02T05:19:32.350Z,46.05
2023-03-02T05:21:59.699Z,41.67
2023-03-02T05:24:27.217Z,44.63
2023-03-02T05:26:54.798Z,47.58
2023-03-02T05:29:22.234Z,47.28
2023-03-02T05:31:51.354Z,42.40
2023-03-02T05:34:18.951Z,45.33
2023-03-02T05:36:46.506Z,45.53
2023-03-02T05:39:14.007Z,45.22
2023-03-02T05:41:42.443Z,43.75
2023-03-02T05:44:12.055Z,44.13
2023-03-02T05:46:39.687Z,44.25
2023-03-02T05:49:07.059Z,47.22
2023-03-02T05:51:34.536Z,46.22
2023-03-02T05:54:02.261Z,46.67
2023-03-02T05:56:30.318Z,47.33
2023-03-02T05:58:58.000Z,43.45
2023-03-02T06:01:25.431Z,43.65
2023-03-02T06:03:52.693Z,45.60
2023-03-02T06:06:20.040Z,48.22
2023-03-02T06:08:47.445Z,42.88
2023-03-02T06:11:14.938Z,51.33
2023-03-02T06:13:42.236Z,46.08
2023-03-02T06:16:09.885Z,47.13
2023-03-02T06:18:39.750Z,41.72
2023-03-02T06:21:08.850Z,46.33
2023-03-02T06:23:36.177Z,46.42
2023-03-02T06:26:12.929Z,45.15
2023-03-02T06:28:51.945Z,45.83
2023-03-02T06:31:20.849Z,43.75
2023-03-02T06:33:48.334Z,41.92
2023-03-02T06:36:17.260Z,43.50
2023-03-02T06:38:45.114Z,44.00
2023-03-02T06:41:12.506Z,45.88
2023-03-02T06:43:39.903Z,50.78
2023-03-02T06:46:07.655Z,53.60
2023-03-02T06:48:34.960Z,51.47
2023-03-02T06:51:02.210Z,44.50
2023-03-02T06:53:29.654Z,44.53
2023-03-02T06:55:57.399Z,47.10
2023-03-02T06:58:25.188Z,51.83
2023-03-02T07:00:53.002Z,47.47
2023-03-02T07:03:20.586Z,49.85
2023-03-02T07:05:49.217Z,44.95
2023-03-02T07:08:16.698Z,46.05
2023-03-02T07:10:44.427Z,45.75
2023-03-02T07:13:11.609Z,44.20
2023-03-02T07:15:40.073Z,50.85
2023-03-02T07:18:07.753Z,43.58
2023-03-02T07:20:35.350Z,49.72
2023-03-02T07:23:02.740Z,43.97
2023-03-02T07:25:31.219Z,47.70
2023-03-02T07:27:58.911Z,42.90
2023-03-02T07:30:26.321Z,50.17
2023-03-02T07:32:53.755Z,46.78
2023-03-02T07:35:21.105Z,49.10
2023-03-02T07:37:48.829Z,45.75
2023-03-02T07:40:16.438Z,45.35
2023-03-02T07:42:44.027Z,41.60
2023-03-02T07:45:14.150Z,47.20
2023-03-02T07:47:41.664Z,43.03
2023-03-02T07:50:09.586Z,52.33
2023-03-02T07:52:36.877Z,45.97
2023-03-02T07:55:04.438Z,47.53
2023-03-02T07:57:31.922Z,55.00
2023-03-02T07:59:59.454Z,48.40
2023-03-02T08:02:26.934Z,50.00
2023-03-02T08:04:54.379Z,47.60
2023-03-02T08:07:21.707Z,51.40
2023-03-02T08:09:49.042Z,51.70
2023-03-02T08:12:16.351Z,52.08
2023-03-02T08:14:44.214Z,55.65
2023-03-02T08:17:11.486Z,53.63
2023-03-02T08:19:38.847Z,50.75
2023-03-02T08:22:06.399Z,50.83
2023-03-02T08:24:33.881Z,55.33
2023-03-02T08:27:02.175Z,50.13
2023-03-02T08:29:30.151Z,51.10
2023-03-02T08:31:58.993Z,48.33
2023-03-02T08:34:26.947Z,50.10
2023-03-02T08:36:54.283Z,47.70
2023-03-02T08:39:24.571Z,48.45
2023-03-02T08:41:52.998Z,48.50
2023-03-02T08:44:23.048Z,53.92
2023-03-02T08:46:51.332Z,60.28
2023-03-02T08:49:19.518Z,55.50
2023-03-02T08:51:56.652Z,55.65
2023-03-02T08:54:29.009Z,48.63
2023-03-02T08:56:59.827Z,56.72
2023-03-02T08:59:32.682Z,50.63
2023-03-02T09:01:59.994Z,50.00
2023-03-02T09:04:27.351Z,58.20
2023-03-02T09:06:54.923Z,52.47
2023-03-02T09:09:22.310Z,52.22
2023-03-02T09:11:49.605Z,52.60
2023-03-02T09:14:17.037Z,48.72
2023-03-02T09:16:45.478Z,54.42
2023-03-02T09:19:13.860Z,46.38
2023-03-02T09:21:41.167Z,50.08
2023-03-02T09:24:08.859Z,49.45
2023-03-02T09:26:36.215Z,49.47
2023-03-02T09:29:03.896Z,54.47
2023-03-02T09:31:31.466Z,51.33
2023-03-02T09:33:59.036Z,54.47
2023-03-02T09:36:26.969Z,51.38
2023-03-02T09:38:55.251Z,47.28
2023-03-02T09:41:22.769Z,51.45
2023-03-02T09:44:38.028Z,50.53
2023-03-02T09:47:19.769Z,59.65
2023-03-02T09:50:03.488Z,50.67
2023-03-02T09:52:37.460Z,55.33
2023-03-02T09:55:14.491Z,46.88
2023-03-02T09:57:43.056Z,53.90
2023-03-02T10:00:19.881Z,48.88
2023-03-02T10:02:54.586Z,50.72
2023-03-02T10:05:31.827Z,46.80
2023-03-02T10:07:59.551Z,48.55
2023-03-02T10:10:37.910Z,47.67
2023-03-02T10:13:27.265Z,45.97
2023-03-02T10:18:45.534Z,48.03
2023-03-02T10:21:21.660Z,48.05
2023-03-02T10:24:01.687Z,48.28
2023-03-02T10:29:25.553Z,46.03
2023-03-02T10:32:28.254Z,47.10
2023-03-02T10:34:55.906Z,45.35
2023-03-02T10:37:25.686Z,40.35
2023-03-02T10:39:53.088Z,43.08
2023-03-02T10:42:31.366Z,41.97
2023-03-02T10:45:17.003Z,54.83
2023-03-02T10:47:44.512Z,49.25
2023-03-02T10:50:22.364Z,52.72
2023-03-02T10:52:59.781Z,42.88
2023-03-02T10:55:28.710Z,40.08
2023-03-02T10:58:22.718Z,40.67
2023-03-02T11:01:05.435Z,45.65
2023-03-02T11:03:34.403Z,44.00
2023-03-02T11:06:18.168Z,51.72
2023-03-02T11:08:45.821Z,40.45
2023-03-02T11:11:24.176Z,49.95
2023-03-02T11:13:51.478Z,42.95
2023-03-02T11:16:18.928Z,44.15
2023-03-02T11:19:05.011Z,51.72
2023-03-02T11:21:42.179Z,47.97
2023-03-02T11:24:17.136Z,45.03
2023-03-02T11:26:52.837Z,50.35
2023-03-02T11:29:33.909Z,44.33
2023-03-02T11:32:09.111Z,47.78
2023-03-02T11:34:48.562Z,48.08
2023-03-02T11:37:23.168Z,48.78
2023-03-02T11:40:14.557Z,46.28
2023-03-02T11:42:46.698Z,45.38
2023-03-02T11:45:13.974Z,41.78
2023-03-02T11:48:11.256Z,41.78
2023-03-02T11:50:50.393Z,43.42
2023-03-02T11:53:19.654Z,45.93
2023-03-02T11:55:49.740Z,42.88
2023-03-02T12:00:52.426Z,40.65
2023-03-02T12:03:31.752Z,42.17
2023-03-02T12:06:07.145Z,46.38
2023-03-02T12:08:39.047Z,37.17
2023-03-02T12:11:28.917Z,42.03
2023-03-02T12:14:07.378Z,44.75
2023-03-02T12:16:37.653Z,41.35
2023-03-02T12:22:01.082Z,42.83
2023-03-02T12:24:30.022Z,38.65
2023-03-02T12:27:25.575Z,42.33
2023-03-02T12:30:08.117Z,45.72
2023-03-02T12:32:35.996Z,41.95
2023-03-02T12:35:12.701Z,43.45
2023-03-02T12:38:00.781Z,39.40
2023-03-02T12:40:46.531Z,43.20
2023-03-02T12:43:27.407Z,42.30
2023-03-02T12:46:21.402Z,39.85
2023-03-02T12:49:13.613Z,42.75
2023-03-02T12:51:56.204Z,42.70
2023-03-02T12:54:29.305Z,42.95
2023-03-02T12:57:08.788Z,57.08
2023-03-02T12:59:36.544Z,42.50
2023-03-02T13:02:25.341Z,48.45
2023-03-02T13:04:58.804Z,43.35
2023-03-02T13:07:42.308Z,41.78
2023-03-02T13:10:27.130Z,37.65
2023-03-02T13:12:54.823Z,49.85
2023-03-02T13:15:22.487Z,46.75
2023-03-02T13:17:56.026Z,46.10
2023-03-02T13:20:27.057Z,40.72
2023-03-02T13:22:54.823Z,44.80
2023-03-02T13:25:29.787Z,39.80
2023-03-02T13:28:07.952Z,39.75
2023-03-02T13:30:37.545Z,40.58
2023-03-02T13:33:35.535Z,40.20
2023-03-02T13:36:04.218Z,43.13
2023-03-02T13:38:37.238Z,41.20
2023-03-02T13:41:05.078Z,37.17
2023-03-02T13:43:38.174Z,45.58
2023-03-02T13:46:17.566Z,39.08
2023-03-02T13:49:07.489Z,44.75
2023-03-02T13:51:39.691Z,39.17
2023-03-02T13:54:17.181Z,36.80
2023-03-02T13:56:46.628Z,39.13
2023-03-02T13:59:17.444Z,40.97
2023-03-02T14:01:45.115Z,43.80
2023-03-02T14:04:17.630Z,44.15
2023-03-02T14:06:45.782Z,39.72
2023-03-02T14:09:13.856Z,40.47
2023-03-02T14:11:47.302Z,40.05
2023-03-02T14:14:19.795Z,40.10
2023-03-02T14:16:47.523Z,40.05
2023-03-02T14:19:18.459Z,40.05
2023-03-02T14:21:46.708Z,35.97
2023-03-02T14:24:14.488Z,41.58
2023-03-02T14:26:44.096Z,42.95
2023-03-02T14:29:23.430Z,40.75
2023-03-02T14:31:51.260Z,39.72
2023-03-02T14:34:18.667Z,40.90
2023-03-02T14:36:49.204Z,40.03
2023-03-02T14:39:33.974Z,37.92
2023-03-02T14:42:01.546Z,33.00
2023-03-02T14:44:28.864Z,36.50
2023-03-02T14:46:57.612Z,36.75
2023-03-02T14:49:25.450Z,42.53
2023-03-02T14:52:00.798Z,36.40
2023-03-02T14:54:51.923Z,39.60
2023-03-02T14:57:25.370Z,40.65
2023-03-02T14:59:53.769Z,40.55
2023-03-02T15:02:31.108Z,40.08
2023-03-02T15:04:58.613Z,39.10
2023-03-02T15:07:27.594Z,35.65
2023-03-02T15:09:58.717Z,43.92
2023-03-02T15:12:26.332Z,41.88
2023-03-02T15:14:53.915Z,38.08
2023-03-02T15:17:22.019Z,37.53
2023-03-02T15:19:49.491Z,40.80
2023-03-02T15:22:16.733Z,44.08
2023-03-02T15:24:44.143Z,40.22
2023-03-02T15:27:11.710Z,36.45
2023-03-02T15:29:39.093Z,42.63
2023-03-02T15:32:07.569Z,36.92
2023-03-02T15:34:34.966Z,40.88
2023-03-02T15:37:02.441Z,40.15
2023-03-02T15:39:30.245Z,37.88
2023-03-02T15:41:57.513Z,35.72
2023-03-02T15:44:25.700Z,40.50
2023-03-02T15:46:54.705Z,45.30
2023-03-02T15:49:24.794Z,36.90
2023-03-02T15:51:52.971Z,39.33
2023-03-02T15:54:21.402Z,40.40
2023-03-02T15:56:53.463Z,38.42
2023-03-02T15:59:25.542Z,46.85
2023-03-02T16:01:53.807Z,41.80
2023-03-02T16:04:21.240Z,40.90
2023-03-02T16:06:48.573Z,36.97
2023-03-02T16:09:15.955Z,37.35
2023-03-02T16:11:43.585Z,39.17
2023-03-02T16:14:13.216Z,36.78
2023-03-02T16:16:41.058Z,34.38
2023-03-02T16:19:14.054Z,39.97
2023-03-02T16:21:41.786Z,38.00
2023-03-02T16:24:09.942Z,41.03
2023-03-02T16:26:38.267Z,35.75
2023-03-02T16:29:08.093Z,36.45
2023-03-02T16:31:37.876Z,40.40
2023-03-02T16:34:09.948Z,41.35
2023-03-02T16:36:39.078Z,40.22
2023-03-02T16:39:07.675Z,35.33
2023-03-02T16:41:35.707Z,39.30
2023-03-02T16:44:03.232Z,40.33
2023-03-02T16:46:32.941Z,34.17
2023-03-02T16:49:01.008Z,41.95
2023-03-02T16:51:28.650Z,34.60
2023-03-02T16:53:56.358Z,39.67
2023-03-02T16:56:23.625Z,36.33
2023-03-02T16:58:50.824Z,44.35
2023-03-02T17:01:20.709Z,35.38
2023-03-02T17:03:50.139Z,33.95
2023-03-02T17:06:21.402Z,40.25
2023-03-02T17:08:50.861Z,38.08
2023-03-02T17:11:18.954Z,37.92
2023-03-02T17:13:46.753Z,35.33
2023-03-02T17:16:16.342Z,35.08
2023-03-02T17:18:46.960Z,38.90
2023-03-02T17:21:16.342Z,37.33
2023-03-02T17:23:44.338Z,36.05
2023-03-02T17:26:11.805Z,39.38
2023-03-02T17:28:39.318Z,40.22
2023-03-02T17:31:07.197Z,39.08
2023-03-02T17:33:34.987Z,39.38
2023-03-02T17:36:06.231Z,36.17
2023-03-02T17:38:34.156Z,38.50
2023-03-02T17:41:03.730Z,38.97
2023-03-02T17:43:35.466Z,41.13
2023-03-02T17:46:36.326Z,37.63
2023-03-02T17:49:04.160Z,37.50
2023-03-02T17:51:31.937Z,37.22
2023-03-02T17:53:59.204Z,37.42
2023-03-02T17:56:27.928Z,38.58
2023-03-02T17:58:57.541Z,40.40
2023-03-02T18:01:25.233Z,38.75
2023-03-02T18:03:52.805Z,39.15
2023-03-02T18:06:20.847Z,38.45
2023-03-02T18:08:49.154Z,37.58
2023-03-02T18:11:18.090Z,39.70
2023-03-02T18:13:45.430Z,40.33
2023-03-02T18:16:15.908Z,44.60
2023-03-02T18:18:43.513Z,42.08
2023-03-02T18:21:10.819Z,42.13
2023-03-02T18:23:39.874Z,43.33
2023-03-02T18:26:07.423Z,43.15
2023-03-02T18:28:34.867Z,40.47
2023-03-02T18:31:03.321Z,38.55
2023-03-02T18:33:30.860Z,38.30
2023-03-02T18:35:59.264Z,40.30
2023-03-02T18:38:30.919Z,34.53
2023-03-02T18:41:00.977Z,41.15
2023-03-02T18:45:58.923Z,39.13
2023-03-02T18:48:26.311Z,37.78
2023-03-02T18:50:54.277Z,46.63
2023-03-02T18:53:21.641Z,43.38
2023-03-02T18:55:52.552Z,43.28
2023-03-02T18:58:22.910Z,37.22
2023-03-02T19:00:53.278Z,39.63
2023-03-02T19:03:20.984Z,40.08
2023-03-02T19:05:48.662Z,39.78
2023-03-02T19:08:16.815Z,41.60
2023-03-02T19:10:44.206Z,41.22
2023-03-02T19:13:12.952Z,40.85
2023-03-02T19:15:40.459Z,43.08
2023-03-02T19:18:08.819Z,42.13
2023-03-02T19:20:36.200Z,52.65
2023-03-02T19:23:03.536Z,40.80
2023-03-02T19:25:31.194Z,45.42
2023-03-02T19:27:58.656Z,37.38
2023-03-02T19:30:27.086Z,41.10
2023-03-02T19:32:55.060Z,40.45
2023-03-02T19:35:24.683Z,45.60
2023-03-02T19:37:52.283Z,45.50
2023-03-02T19:40:22.955Z,45.83
2023-03-02T19:42:51.332Z,44.20
2023-03-02T19:45:28.613Z,41.30
2023-03-02T19:47:57.792Z,45.40
2023-03-02T19:50:26.658Z,40.30
2023-03-02T19:52:56.081Z,46.90
2023-03-02T19:55:24.764Z,46.35
2023-03-02T19:57:59.606Z,48.03
2023-03-02T20:00:29.476Z,48.65
2023-03-02T20:02:57.698Z,47.28
2023-03-02T20:05:27.584Z,51.00
2023-03-02T20:07:55.400Z,49.00
2023-03-02T20:10:28.264Z,43.90
2023-03-02T20:12:55.779Z,45.45
2023-03-02T20:15:24.676Z,47.22
2023-03-02T20:17:52.402Z,46.83
2023-03-02T20:20:19.841Z,50.85
2023-03-02T20:22:47.376Z,45.60
2023-03-02T20:25:14.942Z,48.58
2023-03-02T20:27:44.026Z,46.45
2023-03-02T20:30:19.562Z,51.03
2023-03-02T20:32:47.409Z,54.33
2023-03-02T20:35:14.924Z,64.25
2023-03-02T20:37:42.332Z,48.50
2023-03-02T20:40:09.970Z,51.00
2023-03-02T20:42:37.544Z,49.63
2023-03-02T20:45:05.476Z,51.20
2023-03-02T20:47:33.037Z,52.58
2023-03-02T20:50:00.557Z,49.42
2023-03-02T20:52:28.275Z,51.13
2023-03-02T20:54:55.881Z,53.53
2023-03-02T20:57:23.855Z,51.45
2023-03-02T20:59:51.354Z,53.63
2023-03-02T21:02:19.917Z,61.55
2023-03-02T21:04:47.870Z,55.33
2023-03-02T21:07:15.650Z,55.50
2023-03-02T21:09:43.729Z,56.42
2023-03-02T21:12:12.006Z,59.40
2023-03-02T21:14:40.509Z,55.65
2023-03-02T21:17:08.469Z,55.47
2023-03-02T21:19:35.900Z,54.85
2023-03-02T21:22:03.452Z,54.60
2023-03-02T21:24:30.859Z,52.63
2023-03-02T21:27:00.310Z,54.83
2023-03-02T21:29:27.923Z,54.30
2023-03-02T21:31:55.695Z,52.38
2023-03-02T21:34:23.215Z,51.53
2023-03-02T21:36:53.651Z,51.70
2023-03-02T21:39:23.650Z,52.47
2023-03-02T21:41:52.055Z,53.83
2023-03-02T21:44:19.707Z,57.40
2023-03-02T21:46:47.320Z,53.67
2023-03-02T21:49:16.683Z,61.72
2023-03-02T21:51:44.175Z,68.93
2023-03-02T21:54:11.557Z,54.00
2023-03-02T21:56:39.132Z,52.00
2023-03-02T21:59:06.674Z,56.40
2023-03-02T22:01:34.262Z,53.53
2023-03-02T22:04:01.716Z,54.58
2023-03-02T22:06:31.604Z,57.53
2023-03-02T22:08:59.206Z,55.75
2023-03-02T22:11:29.412Z,61.33
2023-03-02T22:13:59.191Z,55.38
2023-03-02T22:16:29.127Z,60.50
2023-03-02T22:18:58.786Z,58.90
2023-03-02T22:21:47.736Z,62.63
2023-03-02T22:24:19.589Z,64.80
2023-03-02T22:26:52.371Z,59.92
2023-03-02T22:29:43.046Z,60.13
2023-03-02T22:32:15.959Z,63.25
2023-03-02T22:34:43.941Z,60.53
2023-03-02T22:37:17.660Z,59.10
2023-03-02T22:39:46.198Z,56.50
2023-03-02T22:42:25.223Z,60.65
2023-03-02T22:45:10.115Z,53.83
2023-03-02T22:47:37.452Z,56.53
2023-03-02T22:50:25.862Z,59.53
2023-03-02T22:52:54.377Z,58.33
2023-03-02T22:55:48.997Z,59.70
2023-03-02T22:58:22.348Z,55.00
2023-03-02T23:00:49.874Z,54.53
2023-03-02T23:03:19.929Z,57.22
2023-03-02T23:08:23.948Z,52.70
2023-03-02T23:10:54.019Z,57.22
2023-03-02T23:15:50.232Z,63.35
2023-03-02T23:18:29.279Z,58.30
2023-03-02T23:20:57.157Z,59.17
2023-03-02T23:23:25.174Z,60.25
2023-03-02T23:25:52.510Z,60.90
2023-03-02T23:28:19.977Z,61.25
2023-03-02T23:30:47.708Z,60.90
2023-03-02T23:33:14.933Z,61.47
2023-03-02T23:35:42.427Z,64.38
2023-03-02T23:38:09.863Z,62.17
2023-03-02T23:40:37.265Z,58.80
2023-03-02T23:43:04.689Z,64.10
2023-03-02T23:45:32.022Z,60.55
2023-03-02T23:47:59.626Z,60.63
2023-03-02T23:50:36.801Z,61.40
2023-03-02T23:53:04.253Z,60.90
2023-03-02T23:55:32.420Z,59.08
2023-03-02T23:57:59.887Z,59.63
